sensor_id;sensor_type;location;lat;lon;timestamp;pressure;altitude;pressure_sealevel;temperature
68911;BMP180;55953;51.650;-0.522;2022-07-18T00:01:58;101340.20;;;20.10
68911;BMP180;55953;51.650;-0.522;2022-07-18T00:04:27;101340.80;;;19.96
68911;BMP180;55953;51.650;-0.522;2022-07-18T00:06:55;101343.00;;;19.90
68911;BMP180;55953;51.650;-0.522;2022-07-18T00:09:25;101342.20;;;19.92
68911;BMP180;55953;51.650;-0.522;2022-07-18T00:11:56;101338.80;;;20.00
68911;BMP180;55953;51.650;-0.522;2022-07-18T00:14:24;101331.40;;;19.94
68911;BMP180;55953;51.650;-0.522;2022-07-18T00:16:52;101329.40;;;19.92
68911;BMP180;55953;51.650;-0.522;2022-07-18T00:19:20;101324.80;;;20.00
68911;BMP180;55953;51.650;-0.522;2022-07-18T00:21:48;101316.20;;;19.86
68911;BMP180;55953;51.650;-0.522;2022-07-18T00:24:16;101310.80;;;19.90
68911;BMP180;55953;51.650;-0.522;2022-07-18T00:26:43;101304.60;;;19.80
68911;BMP180;55953;51.650;-0.522;2022-07-18T00:29:11;101309.60;;;19.70
68911;BMP180;55953;51.650;-0.522;2022-07-18T00:31:39;101306.20;;;19.60
68911;BMP180;55953;51.650;-0.522;2022-07-18T00:34:07;101304.20;;;19.60
68911;BMP180;55953;51.650;-0.522;2022-07-18T00:36:35;101308.00;;;19.50
68911;BMP180;55953;51.650;-0.522;2022-07-18T00:39:04;101302.20;;;19.40
68911;BMP180;55953;51.650;-0.522;2022-07-18T00:41:32;101299.40;;;19.40
68911;BMP180;55953;51.650;-0.522;2022-07-18T00:44:00;101296.00;;;19.40
68911;BMP180;55953;51.650;-0.522;2022-07-18T00:46:28;101298.00;;;19.40
68911;BMP180;55953;51.650;-0.522;2022-07-18T00:48:57;101296.60;;;19.30
68911;BMP180;55953;51.650;-0.522;2022-07-18T00:51:25;101296.20;;;19.40
68911;BMP180;55953;51.650;-0.522;2022-07-18T00:53:52;101296.80;;;19.30
68911;BMP180;55953;51.650;-0.522;2022-07-18T00:56:21;101297.60;;;19.20
68911;BMP180;55953;51.650;-0.522;2022-07-18T00:58:49;101307.40;;;19.00
68911;BMP180;55953;51.650;-0.522;2022-07-18T01:01:17;101314.80;;;18.90
68911;BMP180;55953;51.650;-0.522;2022-07-18T01:04:04;101310.00;;;18.90
68911;BMP180;55953;51.650;-0.522;2022-07-18T01:06:31;101316.80;;;18.84
68911;BMP180;55953;51.650;-0.522;2022-07-18T01:09:00;101318.60;;;18.90
68911;BMP180;55953;51.650;-0.522;2022-07-18T01:11:28;101313.40;;;18.80
68911;BMP180;55953;51.650;-0.522;2022-07-18T01:13:56;101316.40;;;18.76
68911;BMP180;55953;51.650;-0.522;2022-07-18T01:16:24;101314.40;;;18.70
68911;BMP180;55953;51.650;-0.522;2022-07-18T01:18:52;101307.00;;;18.70
68911;BMP180;55953;51.650;-0.522;2022-07-18T01:21:20;101306.00;;;18.78
68911;BMP180;55953;51.650;-0.522;2022-07-18T01:23:48;101304.20;;;18.70
68911;BMP180;55953;51.650;-0.522;2022-07-18T01:26:17;101306.20;;;18.58
68911;BMP180;55953;51.650;-0.522;2022-07-18T01:28:47;101304.00;;;18.50
68911;BMP180;55953;51.650;-0.522;2022-07-18T01:31:15;101303.80;;;18.50
68911;BMP180;55953;51.650;-0.522;2022-07-18T01:33:43;101304.80;;;18.50
68911;BMP180;55953;51.650;-0.522;2022-07-18T01:36:11;101303.40;;;18.40
68911;BMP180;55953;51.650;-0.522;2022-07-18T01:38:39;101302.00;;;18.40
68911;BMP180;55953;51.650;-0.522;2022-07-18T01:41:07;101296.40;;;18.38
68911;BMP180;55953;51.650;-0.522;2022-07-18T01:43:40;101297.00;;;18.30
68911;BMP180;55953;51.650;-0.522;2022-07-18T01:46:10;101296.60;;;18.30
68911;BMP180;55953;51.650;-0.522;2022-07-18T01:48:40;101305.20;;;18.30
68911;BMP180;55953;51.650;-0.522;2022-07-18T01:51:08;101305.40;;;18.18
68911;BMP180;55953;51.650;-0.522;2022-07-18T01:53:41;101298.60;;;18.10
68911;BMP180;55953;51.650;-0.522;2022-07-18T01:56:12;101298.80;;;18.00
68911;BMP180;55953;51.650;-0.522;2022-07-18T01:58:40;101300.00;;;17.90
68911;BMP180;55953;51.650;-0.522;2022-07-18T02:01:08;101295.60;;;17.88
68911;BMP180;55953;51.650;-0.522;2022-07-18T02:03:36;101292.20;;;17.80
68911;BMP180;55953;51.650;-0.522;2022-07-18T02:06:03;101292.00;;;17.70
68911;BMP180;55953;51.650;-0.522;2022-07-18T02:08:31;101297.20;;;17.70
68911;BMP180;55953;51.650;-0.522;2022-07-18T02:10:59;101289.20;;;17.70
68911;BMP180;55953;51.650;-0.522;2022-07-18T02:13:27;101291.40;;;17.60
68911;BMP180;55953;51.650;-0.522;2022-07-18T02:15:55;101289.20;;;17.50
68911;BMP180;55953;51.650;-0.522;2022-07-18T02:18:23;101291.20;;;17.50
68911;BMP180;55953;51.650;-0.522;2022-07-18T02:20:51;101293.80;;;17.50
68911;BMP180;55953;51.650;-0.522;2022-07-18T02:23:18;101291.00;;;17.48
68911;BMP180;55953;51.650;-0.522;2022-07-18T02:25:46;101287.60;;;17.50
68911;BMP180;55953;51.650;-0.522;2022-07-18T02:28:14;101286.40;;;17.50
68911;BMP180;55953;51.650;-0.522;2022-07-18T02:30:42;101286.00;;;17.60
68911;BMP180;55953;51.650;-0.522;2022-07-18T02:33:10;101289.80;;;17.60
68911;BMP180;55953;51.650;-0.522;2022-07-18T02:35:39;101287.80;;;17.50
68911;BMP180;55953;51.650;-0.522;2022-07-18T02:38:08;101289.60;;;17.48
68911;BMP180;55953;51.650;-0.522;2022-07-18T02:40:36;101292.60;;;17.40
68911;BMP180;55953;51.650;-0.522;2022-07-18T02:43:04;101284.80;;;17.30
68911;BMP180;55953;51.650;-0.522;2022-07-18T02:45:32;101282.00;;;17.30
68911;BMP180;55953;51.650;-0.522;2022-07-18T02:48:00;101281.20;;;17.40
68911;BMP180;55953;51.650;-0.522;2022-07-18T02:50:28;101279.40;;;17.40
68911;BMP180;55953;51.650;-0.522;2022-07-18T02:52:56;101278.00;;;17.30
68911;BMP180;55953;51.650;-0.522;2022-07-18T02:55:24;101270.80;;;17.38
68911;BMP180;55953;51.650;-0.522;2022-07-18T02:57:52;101274.60;;;17.32
68911;BMP180;55953;51.650;-0.522;2022-07-18T03:00:20;101268.40;;;17.20
68911;BMP180;55953;51.650;-0.522;2022-07-18T03:02:47;101273.40;;;17.20
68911;BMP180;55953;51.650;-0.522;2022-07-18T03:05:15;101271.00;;;17.20
68911;BMP180;55953;51.650;-0.522;2022-07-18T03:07:43;101273.20;;;17.20
68911;BMP180;55953;51.650;-0.522;2022-07-18T03:10:11;101267.80;;;17.20
68911;BMP180;55953;51.650;-0.522;2022-07-18T03:12:41;101272.80;;;17.10
68911;BMP180;55953;51.650;-0.522;2022-07-18T03:15:10;101271.20;;;17.10
68911;BMP180;55953;51.650;-0.522;2022-07-18T03:17:38;101265.40;;;17.10
68911;BMP180;55953;51.650;-0.522;2022-07-18T03:20:06;101269.00;;;17.10
68911;BMP180;55953;51.650;-0.522;2022-07-18T03:22:34;101267.60;;;17.10
68911;BMP180;55953;51.650;-0.522;2022-07-18T03:25:03;101261.60;;;17.10
68911;BMP180;55953;51.650;-0.522;2022-07-18T03:27:31;101258.20;;;17.10
68911;BMP180;55953;51.650;-0.522;2022-07-18T03:29:59;101254.40;;;17.10
68911;BMP180;55953;51.650;-0.522;2022-07-18T03:32:27;101250.60;;;17.10
68911;BMP180;55953;51.650;-0.522;2022-07-18T03:34:54;101246.60;;;17.12
68911;BMP180;55953;51.650;-0.522;2022-07-18T03:37:22;101238.20;;;17.20
68911;BMP180;55953;51.650;-0.522;2022-07-18T03:39:50;101234.40;;;17.20
68911;BMP180;55953;51.650;-0.522;2022-07-18T03:42:18;101235.40;;;17.10
68911;BMP180;55953;51.650;-0.522;2022-07-18T03:44:45;101233.60;;;17.10
68911;BMP180;55953;51.650;-0.522;2022-07-18T03:47:14;101228.80;;;17.10
68911;BMP180;55953;51.650;-0.522;2022-07-18T03:49:41;101227.80;;;17.10
68911;BMP180;55953;51.650;-0.522;2022-07-18T03:52:09;101227.20;;;17.00
68911;BMP180;55953;51.650;-0.522;2022-07-18T03:54:37;101223.00;;;17.00
68911;BMP180;55953;51.650;-0.522;2022-07-18T03:57:04;101224.20;;;17.00
68911;BMP180;55953;51.650;-0.522;2022-07-18T03:59:32;101221.00;;;17.00
68911;BMP180;55953;51.650;-0.522;2022-07-18T04:02:01;101220.20;;;17.00
68911;BMP180;55953;51.650;-0.522;2022-07-18T04:04:29;101213.40;;;16.90
68911;BMP180;55953;51.650;-0.522;2022-07-18T04:06:57;101209.20;;;16.80
68911;BMP180;55953;51.650;-0.522;2022-07-18T04:09:27;101208.80;;;16.80
68911;BMP180;55953;51.650;-0.522;2022-07-18T04:11:55;101205.00;;;17.00
68911;BMP180;55953;51.650;-0.522;2022-07-18T04:14:23;101196.20;;;17.00
68911;BMP180;55953;51.650;-0.522;2022-07-18T04:16:51;101201.40;;;16.90
68911;BMP180;55953;51.650;-0.522;2022-07-18T04:19:19;101197.80;;;16.90
68911;BMP180;55953;51.650;-0.522;2022-07-18T04:21:46;101200.00;;;16.90
68911;BMP180;55953;51.650;-0.522;2022-07-18T04:24:14;101199.60;;;16.90
68911;BMP180;55953;51.650;-0.522;2022-07-18T04:40:26;101186.80;;;17.62
68911;BMP180;55953;51.650;-0.522;2022-07-18T04:42:54;101178.40;;;17.80
68911;BMP180;55953;51.650;-0.522;2022-07-18T04:45:22;101184.20;;;17.80
68911;BMP180;55953;51.650;-0.522;2022-07-18T04:47:53;101180.40;;;17.80
68911;BMP180;55953;51.650;-0.522;2022-07-18T04:50:23;101180.40;;;17.78
68911;BMP180;55953;51.650;-0.522;2022-07-18T04:52:52;101177.80;;;17.80
68911;BMP180;55953;51.650;-0.522;2022-07-18T05:08:27;101174.00;;;18.28
68911;BMP180;55953;51.650;-0.522;2022-07-18T05:10:55;101176.60;;;18.50
68911;BMP180;55953;51.650;-0.522;2022-07-18T05:13:23;101173.80;;;18.40
68911;BMP180;55953;51.650;-0.522;2022-07-18T05:15:52;101171.00;;;18.40
68911;BMP180;55953;51.650;-0.522;2022-07-18T05:18:20;101169.00;;;18.40
68911;BMP180;55953;51.650;-0.522;2022-07-18T05:20:48;101166.60;;;18.50
68911;BMP180;55953;51.650;-0.522;2022-07-18T05:23:16;101166.40;;;18.50
68911;BMP180;55953;51.650;-0.522;2022-07-18T05:25:44;101166.80;;;18.50
68911;BMP180;55953;51.650;-0.522;2022-07-18T05:28:12;101170.60;;;18.58
68911;BMP180;55953;51.650;-0.522;2022-07-18T05:30:41;101170.40;;;18.60
68911;BMP180;55953;51.650;-0.522;2022-07-18T05:33:08;101169.80;;;18.60
68911;BMP180;55953;51.650;-0.522;2022-07-18T05:35:37;101165.60;;;18.60
68911;BMP180;55953;51.650;-0.522;2022-07-18T05:38:04;101164.40;;;18.70
68911;BMP180;55953;51.650;-0.522;2022-07-18T05:40:32;101164.20;;;18.70
68911;BMP180;55953;51.650;-0.522;2022-07-18T05:43:00;101165.20;;;18.80
68911;BMP180;55953;51.650;-0.522;2022-07-18T05:45:29;101164.60;;;18.80
68911;BMP180;55953;51.650;-0.522;2022-07-18T05:47:57;101167.40;;;18.80
68911;BMP180;55953;51.650;-0.522;2022-07-18T05:50:25;101165.40;;;18.80
68911;BMP180;55953;51.650;-0.522;2022-07-18T05:52:53;101162.40;;;18.80
68911;BMP180;55953;51.650;-0.522;2022-07-18T05:55:21;101164.80;;;18.80
68911;BMP180;55953;51.650;-0.522;2022-07-18T05:57:49;101165.20;;;18.70
68911;BMP180;55953;51.650;-0.522;2022-07-18T06:00:18;101163.00;;;18.80
68911;BMP180;55953;51.650;-0.522;2022-07-18T06:02:50;101165.80;;;18.86
68911;BMP180;55953;51.650;-0.522;2022-07-18T06:05:19;101163.00;;;19.00
68911;BMP180;55953;51.650;-0.522;2022-07-18T06:07:54;101163.40;;;19.10
68911;BMP180;55953;51.650;-0.522;2022-07-18T06:10:24;101166.80;;;19.30
68911;BMP180;55953;51.650;-0.522;2022-07-18T06:12:53;101161.20;;;19.46
68911;BMP180;55953;51.650;-0.522;2022-07-18T06:15:23;101163.00;;;19.60
68911;BMP180;55953;51.650;-0.522;2022-07-18T06:17:51;101156.40;;;19.70
68911;BMP180;55953;51.650;-0.522;2022-07-18T06:20:19;101160.20;;;19.80
68911;BMP180;55953;51.650;-0.522;2022-07-18T06:22:47;101153.00;;;19.88
68911;BMP180;55953;51.650;-0.522;2022-07-18T06:25:15;101160.60;;;20.00
68911;BMP180;55953;51.650;-0.522;2022-07-18T06:27:43;101161.80;;;20.20
68911;BMP180;55953;51.650;-0.522;2022-07-18T06:46:24;101160.00;;;21.50
68911;BMP180;55953;51.650;-0.522;2022-07-18T06:48:52;101160.60;;;21.60
68911;BMP180;55953;51.650;-0.522;2022-07-18T06:51:20;101157.20;;;21.58
68911;BMP180;55953;51.650;-0.522;2022-07-18T06:53:47;101156.60;;;21.50
68911;BMP180;55953;51.650;-0.522;2022-07-18T06:56:15;101159.60;;;21.60
68911;BMP180;55953;51.650;-0.522;2022-07-18T06:58:43;101157.00;;;21.68
68911;BMP180;55953;51.650;-0.522;2022-07-18T07:01:20;101154.00;;;21.70
68911;BMP180;55953;51.650;-0.522;2022-07-18T07:03:48;101156.60;;;21.70
68911;BMP180;55953;51.650;-0.522;2022-07-18T07:06:16;101155.20;;;21.70
68911;BMP180;55953;51.650;-0.522;2022-07-18T07:08:44;101152.40;;;21.78
68911;BMP180;55953;51.650;-0.522;2022-07-18T07:11:12;101151.80;;;21.80
68911;BMP180;55953;51.650;-0.522;2022-07-18T07:13:40;101151.40;;;21.84
68911;BMP180;55953;51.650;-0.522;2022-07-18T07:16:08;101153.80;;;21.90
68911;BMP180;55953;51.650;-0.522;2022-07-18T07:18:36;101159.40;;;22.00
68911;BMP180;55953;51.650;-0.522;2022-07-18T07:21:05;101151.60;;;22.10
68911;BMP180;55953;51.650;-0.522;2022-07-18T07:23:33;101150.40;;;22.20
68911;BMP180;55953;51.650;-0.522;2022-07-18T07:26:01;101154.60;;;22.30
68911;BMP180;55953;51.650;-0.522;2022-07-18T07:28:29;101156.40;;;22.40
68911;BMP180;55953;51.650;-0.522;2022-07-18T07:30:57;101158.00;;;22.54
68911;BMP180;55953;51.650;-0.522;2022-07-18T07:33:24;101160.60;;;22.70
68911;BMP180;55953;51.650;-0.522;2022-07-18T07:35:52;101152.60;;;22.90
68911;BMP180;55953;51.650;-0.522;2022-07-18T07:38:20;101153.00;;;23.00
68911;BMP180;55953;51.650;-0.522;2022-07-18T07:40:50;101154.60;;;23.20
68911;BMP180;55953;51.650;-0.522;2022-07-18T07:43:20;101157.40;;;23.36
68911;BMP180;55953;51.650;-0.522;2022-07-18T07:45:49;101157.20;;;23.50
68911;BMP180;55953;51.650;-0.522;2022-07-18T07:48:18;101157.20;;;23.60
68911;BMP180;55953;51.650;-0.522;2022-07-18T07:50:46;101145.80;;;23.80
68911;BMP180;55953;51.650;-0.522;2022-07-18T07:53:14;101153.00;;;24.02
68911;BMP180;55953;51.650;-0.522;2022-07-18T07:55:42;101156.00;;;24.22
68911;BMP180;55953;51.650;-0.522;2022-07-18T07:58:10;101153.80;;;24.38
68911;BMP180;55953;51.650;-0.522;2022-07-18T08:00:39;101151.80;;;24.50
68911;BMP180;55953;51.650;-0.522;2022-07-18T08:03:08;101151.60;;;24.66
68911;BMP180;55953;51.650;-0.522;2022-07-18T08:05:47;101146.80;;;24.70
68911;BMP180;55953;51.650;-0.522;2022-07-18T08:08:17;101148.80;;;24.80
68911;BMP180;55953;51.650;-0.522;2022-07-18T08:10:45;101150.60;;;25.00
68911;BMP180;55953;51.650;-0.522;2022-07-18T08:13:15;101148.00;;;25.10
68911;BMP180;55953;51.650;-0.522;2022-07-18T08:15:43;101146.00;;;25.30
68911;BMP180;55953;51.650;-0.522;2022-07-18T08:18:11;101150.80;;;25.44
68911;BMP180;55953;51.650;-0.522;2022-07-18T08:20:39;101145.80;;;25.66
68911;BMP180;55953;51.650;-0.522;2022-07-18T08:23:09;101150.00;;;25.90
68911;BMP180;55953;51.650;-0.522;2022-07-18T08:25:41;101150.40;;;26.12
68911;BMP180;55953;51.650;-0.522;2022-07-18T08:28:11;101147.00;;;26.30
68911;BMP180;55953;51.650;-0.522;2022-07-18T08:30:40;101146.80;;;26.58
68911;BMP180;55953;51.650;-0.522;2022-07-18T08:33:08;101144.60;;;26.80
68911;BMP180;55953;51.650;-0.522;2022-07-18T08:35:36;101149.40;;;27.04
68911;BMP180;55953;51.650;-0.522;2022-07-18T08:38:05;101142.60;;;27.34
68911;BMP180;55953;51.650;-0.522;2022-07-18T08:40:33;101141.60;;;27.72
68911;BMP180;55953;51.650;-0.522;2022-07-18T08:43:03;101144.40;;;27.92
68911;BMP180;55953;51.650;-0.522;2022-07-18T08:45:54;101139.40;;;28.20
68911;BMP180;55953;51.650;-0.522;2022-07-18T08:48:24;101139.40;;;28.40
68911;BMP180;55953;51.650;-0.522;2022-07-18T08:50:52;101135.80;;;28.50
68911;BMP180;55953;51.650;-0.522;2022-07-18T08:53:20;101131.20;;;28.60
68911;BMP180;55953;51.650;-0.522;2022-07-18T08:55:48;101126.00;;;28.70
68911;BMP180;55953;51.650;-0.522;2022-07-18T08:58:17;101133.60;;;28.74
68911;BMP180;55953;51.650;-0.522;2022-07-18T09:01:06;101136.00;;;28.70
68911;BMP180;55953;51.650;-0.522;2022-07-18T09:03:34;101133.40;;;28.70
68911;BMP180;55953;51.650;-0.522;2022-07-18T09:08:38;101130.00;;;28.70
68911;BMP180;55953;51.650;-0.522;2022-07-18T09:11:11;101128.20;;;28.70
68911;BMP180;55953;51.650;-0.522;2022-07-18T09:13:59;101125.20;;;28.70
68911;BMP180;55953;51.650;-0.522;2022-07-18T09:16:27;101123.60;;;28.70
68911;BMP180;55953;51.650;-0.522;2022-07-18T09:18:55;101119.60;;;28.70
68911;BMP180;55953;51.650;-0.522;2022-07-18T09:21:23;101117.00;;;28.70
68911;BMP180;55953;51.650;-0.522;2022-07-18T09:23:53;101112.00;;;28.80
68911;BMP180;55953;51.650;-0.522;2022-07-18T09:26:40;101108.80;;;28.80
68911;BMP180;55953;51.650;-0.522;2022-07-18T09:29:15;101110.20;;;28.90
68911;BMP180;55953;51.650;-0.522;2022-07-18T09:31:54;101114.80;;;29.08
68911;BMP180;55953;51.650;-0.522;2022-07-18T09:34:38;101111.80;;;29.10
68911;BMP180;55953;51.650;-0.522;2022-07-18T09:37:11;101110.00;;;29.20
68911;BMP180;55953;51.650;-0.522;2022-07-18T09:39:39;101110.20;;;29.20
68911;BMP180;55953;51.650;-0.522;2022-07-18T09:42:18;101114.40;;;29.20
68911;BMP180;55953;51.650;-0.522;2022-07-18T09:44:58;101103.60;;;29.20
68911;BMP180;55953;51.650;-0.522;2022-07-18T09:47:26;101104.60;;;29.26
68911;BMP180;55953;51.650;-0.522;2022-07-18T09:49:54;101099.40;;;29.30
68911;BMP180;55953;51.650;-0.522;2022-07-18T09:52:23;101101.40;;;29.40
68911;BMP180;55953;51.650;-0.522;2022-07-18T09:55:03;101097.60;;;29.50
68911;BMP180;55953;51.650;-0.522;2022-07-18T09:57:32;101095.20;;;29.54
68911;BMP180;55953;51.650;-0.522;2022-07-18T10:00:00;101086.80;;;29.60
68911;BMP180;55953;51.650;-0.522;2022-07-18T10:02:28;101090.60;;;29.70
68911;BMP180;55953;51.650;-0.522;2022-07-18T10:04:56;101086.60;;;29.80
68911;BMP180;55953;51.650;-0.522;2022-07-18T10:07:24;101087.60;;;29.90
68911;BMP180;55953;51.650;-0.522;2022-07-18T10:09:52;101091.80;;;30.00
68911;BMP180;55953;51.650;-0.522;2022-07-18T10:12:20;101088.40;;;30.10
68911;BMP180;55953;51.650;-0.522;2022-07-18T10:14:48;101093.00;;;30.20
68911;BMP180;55953;51.650;-0.522;2022-07-18T10:17:16;101093.80;;;30.30
68911;BMP180;55953;51.650;-0.522;2022-07-18T10:19:45;101099.40;;;30.44
68911;BMP180;55953;51.650;-0.522;2022-07-18T10:22:13;101099.80;;;30.60
68911;BMP180;55953;51.650;-0.522;2022-07-18T10:24:42;101095.40;;;30.60
68911;BMP180;55953;51.650;-0.522;2022-07-18T10:27:20;101097.00;;;30.60
68911;BMP180;55953;51.650;-0.522;2022-07-18T10:30:11;101087.80;;;30.62
68911;BMP180;55953;51.650;-0.522;2022-07-18T10:32:41;101088.40;;;30.70
68911;BMP180;55953;51.650;-0.522;2022-07-18T10:35:10;101086.80;;;30.80
68911;BMP180;55953;51.650;-0.522;2022-07-18T10:37:41;101083.40;;;30.90
68911;BMP180;55953;51.650;-0.522;2022-07-18T10:40:29;101085.20;;;31.06
68911;BMP180;55953;51.650;-0.522;2022-07-18T10:46:02;101085.80;;;31.30
68911;BMP180;55953;51.650;-0.522;2022-07-18T10:51:15;101083.00;;;31.40
68911;BMP180;55953;51.650;-0.522;2022-07-18T10:54:02;101084.00;;;31.50
68911;BMP180;55953;51.650;-0.522;2022-07-18T10:59:22;101079.80;;;31.80
68911;BMP180;55953;51.650;-0.522;2022-07-18T11:01:56;101079.80;;;31.80
68911;BMP180;55953;51.650;-0.522;2022-07-18T11:04:36;101081.60;;;31.80
68911;BMP180;55953;51.650;-0.522;2022-07-18T11:07:15;101081.20;;;31.90
68911;BMP180;55953;51.650;-0.522;2022-07-18T11:09:46;101075.60;;;32.10
68911;BMP180;55953;51.650;-0.522;2022-07-18T11:12:29;101072.00;;;32.10
68911;BMP180;55953;51.650;-0.522;2022-07-18T11:18:01;101076.20;;;32.38
68911;BMP180;55953;51.650;-0.522;2022-07-18T11:23:26;101072.20;;;32.58
68911;BMP180;55953;51.650;-0.522;2022-07-18T11:26:02;101069.80;;;32.60
68911;BMP180;55953;51.650;-0.522;2022-07-18T11:28:29;101066.80;;;32.70
68911;BMP180;55953;51.650;-0.522;2022-07-18T11:31:10;101064.80;;;32.86
68911;BMP180;55953;51.650;-0.522;2022-07-18T11:33:44;101058.80;;;32.96
68911;BMP180;55953;51.650;-0.522;2022-07-18T11:36:19;101062.40;;;33.00
68911;BMP180;55953;51.650;-0.522;2022-07-18T11:39:01;101063.60;;;33.00
68911;BMP180;55953;51.650;-0.522;2022-07-18T11:41:32;101060.00;;;33.10
68911;BMP180;55953;51.650;-0.522;2022-07-18T11:44:01;101055.20;;;33.20
68911;BMP180;55953;51.650;-0.522;2022-07-18T11:46:29;101052.20;;;33.40
68911;BMP180;55953;51.650;-0.522;2022-07-18T11:49:05;101055.80;;;33.58
68911;BMP180;55953;51.650;-0.522;2022-07-18T11:51:36;101056.20;;;33.70
68911;BMP180;55953;51.650;-0.522;2022-07-18T11:54:05;101040.40;;;33.80
68911;BMP180;55953;51.650;-0.522;2022-07-18T11:56:46;101045.40;;;33.90
68911;BMP180;55953;51.650;-0.522;2022-07-18T11:59:15;101044.00;;;34.10
68911;BMP180;55953;51.650;-0.522;2022-07-18T12:01:44;101043.60;;;34.30
68911;BMP180;55953;51.650;-0.522;2022-07-18T12:04:23;101036.00;;;34.40
68911;BMP180;55953;51.650;-0.522;2022-07-18T12:07:25;101031.40;;;34.60
68911;BMP180;55953;51.650;-0.522;2022-07-18T12:09:53;101040.00;;;34.80
68911;BMP180;55953;51.650;-0.522;2022-07-18T12:12:23;101032.80;;;34.90
68911;BMP180;55953;51.650;-0.522;2022-07-18T12:14:58;101026.80;;;35.00
68911;BMP180;55953;51.650;-0.522;2022-07-18T12:17:29;101033.20;;;35.20
68911;BMP180;55953;51.650;-0.522;2022-07-18T12:20:29;101026.40;;;35.20
68911;BMP180;55953;51.650;-0.522;2022-07-18T12:23:09;101026.20;;;35.40
68911;BMP180;55953;51.650;-0.522;2022-07-18T12:25:43;101022.40;;;35.60
68911;BMP180;55953;51.650;-0.522;2022-07-18T12:28:17;101019.20;;;35.60
68911;BMP180;55953;51.650;-0.522;2022-07-18T12:30:46;101022.80;;;35.60
68911;BMP180;55953;51.650;-0.522;2022-07-18T12:33:14;101019.60;;;35.78
68911;BMP180;55953;51.650;-0.522;2022-07-18T12:35:43;101019.00;;;35.90
68911;BMP180;55953;51.650;-0.522;2022-07-18T12:38:16;101018.60;;;36.00
68911;BMP180;55953;51.650;-0.522;2022-07-18T12:45:54;101005.40;;;36.20
68911;BMP180;55953;51.650;-0.522;2022-07-18T12:48:25;101008.00;;;36.30
68911;BMP180;55953;51.650;-0.522;2022-07-18T12:50:59;101007.80;;;36.40
68911;BMP180;55953;51.650;-0.522;2022-07-18T12:53:31;101008.20;;;36.50
68911;BMP180;55953;51.650;-0.522;2022-07-18T12:55:59;101008.60;;;36.50
68911;BMP180;55953;51.650;-0.522;2022-07-18T12:58:27;101004.60;;;36.58
68911;BMP180;55953;51.650;-0.522;2022-07-18T13:00:55;101002.00;;;36.60
68911;BMP180;55953;51.650;-0.522;2022-07-18T13:03:33;100998.60;;;36.62
68911;BMP180;55953;51.650;-0.522;2022-07-18T13:06:01;101001.00;;;36.70
68911;BMP180;55953;51.650;-0.522;2022-07-18T13:08:29;100998.00;;;36.80
68911;BMP180;55953;51.650;-0.522;2022-07-18T13:11:00;100997.80;;;36.80
68911;BMP180;55953;51.650;-0.522;2022-07-18T13:13:28;100999.20;;;36.90
68911;BMP180;55953;51.650;-0.522;2022-07-18T13:15:56;100993.00;;;36.92
68911;BMP180;55953;51.650;-0.522;2022-07-18T13:18:24;100992.60;;;36.90
68911;BMP180;55953;51.650;-0.522;2022-07-18T13:20:52;100992.80;;;36.90
68911;BMP180;55953;51.650;-0.522;2022-07-18T13:23:20;100994.60;;;36.90
68911;BMP180;55953;51.650;-0.522;2022-07-18T13:25:48;100986.80;;;36.90
68911;BMP180;55953;51.650;-0.522;2022-07-18T13:28:15;100986.00;;;37.00
68911;BMP180;55953;51.650;-0.522;2022-07-18T13:30:43;100982.80;;;37.10
68911;BMP180;55953;51.650;-0.522;2022-07-18T13:33:11;100979.60;;;37.10
68911;BMP180;55953;51.650;-0.522;2022-07-18T13:35:39;100983.20;;;37.00
68911;BMP180;55953;51.650;-0.522;2022-07-18T13:38:07;100981.00;;;36.86
68911;BMP180;55953;51.650;-0.522;2022-07-18T13:40:35;100980.80;;;36.76
68911;BMP180;55953;51.650;-0.522;2022-07-18T13:43:03;100976.60;;;36.46
68911;BMP180;55953;51.650;-0.522;2022-07-18T13:45:30;100974.20;;;36.30
68911;BMP180;55953;51.650;-0.522;2022-07-18T13:47:58;100975.00;;;36.30
68911;BMP180;55953;51.650;-0.522;2022-07-18T13:50:26;100966.00;;;36.38
68911;BMP180;55953;51.650;-0.522;2022-07-18T13:52:54;100965.20;;;36.50
68911;BMP180;55953;51.650;-0.522;2022-07-18T13:55:22;100967.20;;;36.66
68911;BMP180;55953;51.650;-0.522;2022-07-18T13:57:50;100961.60;;;36.80
68911;BMP180;55953;51.650;-0.522;2022-07-18T14:00:18;100958.00;;;36.90
68911;BMP180;55953;51.650;-0.522;2022-07-18T14:02:46;100955.60;;;37.00
68911;BMP180;55953;51.650;-0.522;2022-07-18T14:05:15;100950.00;;;37.10
68911;BMP180;55953;51.650;-0.522;2022-07-18T14:07:44;100950.80;;;37.10
68911;BMP180;55953;51.650;-0.522;2022-07-18T14:10:14;100942.40;;;37.20
68911;BMP180;55953;51.650;-0.522;2022-07-18T14:12:43;100943.60;;;37.30
68911;BMP180;55953;51.650;-0.522;2022-07-18T14:15:12;100951.60;;;37.30
68911;BMP180;55953;51.650;-0.522;2022-07-18T14:17:40;100941.20;;;37.20
68911;BMP180;55953;51.650;-0.522;2022-07-18T14:20:10;100940.40;;;37.24
68911;BMP180;55953;51.650;-0.522;2022-07-18T14:22:39;100937.20;;;37.30
68911;BMP180;55953;51.650;-0.522;2022-07-18T14:25:12;100939.80;;;37.30
68911;BMP180;55953;51.650;-0.522;2022-07-18T14:27:41;100942.20;;;37.20
68911;BMP180;55953;51.650;-0.522;2022-07-18T14:30:13;100936.80;;;37.20
68911;BMP180;55953;51.650;-0.522;2022-07-18T14:32:41;100935.80;;;37.14
68911;BMP180;55953;51.650;-0.522;2022-07-18T14:35:10;100937.60;;;37.10
68911;BMP180;55953;51.650;-0.522;2022-07-18T14:37:38;100938.80;;;37.10
68911;BMP180;55953;51.650;-0.522;2022-07-18T14:40:07;100936.20;;;37.10
68911;BMP180;55953;51.650;-0.522;2022-07-18T14:42:35;100931.40;;;37.10
68911;BMP180;55953;51.650;-0.522;2022-07-18T14:45:04;100924.20;;;36.92
68911;BMP180;55953;51.650;-0.522;2022-07-18T14:47:32;100927.00;;;36.90
68911;BMP180;55953;51.650;-0.522;2022-07-18T14:50:06;100926.60;;;36.94
68911;BMP180;55953;51.650;-0.522;2022-07-18T14:52:34;100927.00;;;37.00
68911;BMP180;55953;51.650;-0.522;2022-07-18T14:55:03;100928.60;;;37.00
68911;BMP180;55953;51.650;-0.522;2022-07-18T14:57:32;100925.00;;;37.00
68911;BMP180;55953;51.650;-0.522;2022-07-18T15:00:04;100927.00;;;37.00
68911;BMP180;55953;51.650;-0.522;2022-07-18T15:02:32;100925.80;;;36.92
68911;BMP180;55953;51.650;-0.522;2022-07-18T15:05:02;100925.80;;;37.00